createdAt,value
2016-12-01T00:00:16.646Z,7.99
2016-12-01T00:01:25.542Z,8.1
2016-12-01T00:02:34.749Z,8.12
2016-12-01T00:03:44.254Z,8.14
2016-12-01T00:04:53.140Z,8.04
2016-12-01T00:06:02.021Z,8.04
2016-12-01T00:07:10.903Z,7.94
2016-12-01T00:08:19.790Z,7.95
2016-12-01T00:09:28.776Z,7.98
2016-12-01T00:10:37.658Z,8.05
2016-12-01T00:11:46.542Z,7.88
2016-12-01T00:12:55.423Z,8.19
2016-12-01T00:14:04.312Z,8.13
2016-12-01T00:15:13.337Z,8.26
2016-12-01T00:16:21.936Z,8.29
2016-12-01T00:17:30.508Z,8.31
2016-12-01T00:18:39.391Z,8.26
2016-12-01T00:19:47.960Z,8.06
2016-12-01T00:20:57.512Z,8.2
2016-12-01T00:22:06.095Z,8.29
2016-12-01T00:23:14.988Z,8.2
2016-12-01T00:24:23.553Z,8.05
2016-12-01T00:25:32.132Z,7.96
2016-12-01T00:26:40.806Z,8.09
2016-12-01T00:27:49.690Z,7.99
2016-12-01T00:28:58.262Z,8.02
2016-12-01T00:30:07.148Z,7.83
2016-12-01T00:31:15.715Z,7.94
2016-12-01T00:32:24.650Z,7.94
2016-12-01T00:33:33.218Z,8.04
2016-12-01T00:34:42.101Z,7.96
2016-12-01T00:35:50.986Z,8.09
2016-12-01T00:36:59.870Z,7.99
2016-12-01T00:38:09.205Z,7.96
2016-12-01T00:39:17.777Z,7.96
2016-12-01T00:40:26.343Z,8.12
2016-12-01T00:41:34.909Z,8.01
2016-12-01T00:42:43.793Z,8.26
2016-12-01T00:43:52.726Z,8.21
2016-12-01T00:45:01.619Z,8.1
2016-12-01T00:46:10.824Z,8.14
2016-12-01T00:47:19.711Z,8.32
2016-12-01T00:48:28.604Z,8.19
2016-12-01T00:49:37.844Z,8.29
2016-12-01T00:50:46.411Z,8.17
2016-12-01T00:51:55.618Z,8.19
2016-12-01T00:53:04.510Z,8.19
2016-12-01T00:54:13.398Z,7.92
2016-12-01T00:55:22.684Z,8.05
2016-12-01T00:56:31.889Z,8.24
2016-12-01T00:57:40.454Z,7.98
2016-12-01T00:58:49.343Z,8.16
2016-12-01T00:59:57.915Z,8.24
2016-12-01T01:01:07.166Z,8.26
2016-12-01T01:02:16.371Z,8.32
2016-12-01T01:03:24.943Z,8.28
2016-12-01T01:04:33.507Z,8.24
2016-12-01T01:05:42.074Z,8.32
2016-12-01T01:06:50.740Z,8.29
2016-12-01T01:07:59.305Z,8.28
2016-12-01T01:09:08.509Z,8.23
2016-12-01T01:10:17.393Z,8.29
2016-12-01T01:11:26.287Z,8.37
2016-12-01T01:12:35.530Z,8.19
2016-12-01T01:13:44.095Z,8.32
2016-12-01T01:14:52.664Z,8.28
2016-12-01T01:16:01.238Z,8.31
2016-12-01T01:17:10.130Z,8.28
2016-12-01T01:18:19.373Z,8.37
2016-12-01T01:19:27.940Z,8.47
2016-12-01T01:20:37.150Z,8.37
2016-12-01T01:21:46.352Z,8.44
2016-12-01T01:22:55.259Z,8.28
2016-12-01T01:24:03.877Z,8.42
2016-12-01T01:25:12.764Z,8.52
2016-12-01T01:26:21.336Z,8.49
2016-12-01T01:27:30.219Z,8.39
2016-12-01T01:28:38.785Z,8.5
2016-12-01T01:29:48.064Z,8.52
2016-12-01T01:30:56.636Z,8.56
2016-12-01T01:32:05.235Z,8.42
2016-12-01T01:33:13.807Z,8.56
2016-12-01T01:34:22.383Z,8.53
2016-12-01T01:35:31.001Z,8.46
2016-12-01T01:36:40.204Z,8.56
2016-12-01T01:37:48.771Z,8.5
2016-12-01T01:38:57.341Z,8.34
2016-12-01T01:40:05.932Z,8.34
2016-12-01T01:41:14.846Z,8.5
2016-12-01T01:42:24.046Z,8.41
2016-12-01T01:43:32.620Z,8.5
2016-12-01T01:44:41.192Z,8.67
2016-12-01T01:45:49.758Z,8.49
2016-12-01T01:46:58.744Z,8.49
2016-12-01T01:48:07.308Z,8.56
2016-12-01T01:49:15.876Z,8.57
2016-12-01T01:50:24.443Z,8.52
2016-12-01T01:51:33.011Z,8.55
2016-12-01T01:52:41.628Z,8.71
2016-12-01T01:53:50.512Z,8.72
2016-12-01T01:54:59.714Z,8.98
2016-12-01T01:56:08.281Z,8.88
2016-12-01T01:57:16.846Z,8.63
2016-12-01T01:58:25.513Z,8.75
2016-12-01T01:59:34.081Z,8.72
2016-12-01T02:00:42.647Z,8.67
2016-12-01T02:01:51.857Z,8.8
2016-12-01T02:03:00.740Z,8.57
2016-12-01T02:04:10.075Z,8.78
2016-12-01T02:05:19.282Z,8.95
2016-12-01T02:06:28.495Z,8.78
2016-12-01T02:07:37.700Z,8.57
2016-12-01T02:08:46.265Z,8.75
2016-12-01T02:09:55.552Z,8.88
2016-12-01T02:11:04.437Z,8.83
2016-12-01T02:12:13.003Z,8.71
2016-12-01T02:13:22.216Z,8.75
2016-12-01T02:14:30.782Z,8.65
2016-12-01T02:15:39.971Z,8.7
2016-12-01T02:16:48.868Z,8.75
2016-12-01T02:17:58.071Z,8.77
2016-12-01T02:19:06.641Z,8.8
2016-12-01T02:20:15.529Z,8.77
2016-12-01T02:21:24.147Z,8.96
2016-12-01T02:22:32.720Z,8.93
2016-12-01T02:23:41.920Z,9.01
2016-12-01T02:24:50.491Z,8.96
2016-12-01T02:25:59.070Z,8.95
2016-12-01T02:27:08.083Z,8.9
2016-12-01T02:28:16.657Z,8.88
2016-12-01T02:29:25.545Z,8.83
2016-12-01T02:30:34.115Z,8.83
2016-12-01T02:31:42.687Z,8.71
2016-12-01T02:32:51.624Z,8.86
2016-12-01T02:34:00.191Z,8.86
2016-12-01T02:35:09.393Z,8.98
2016-12-01T02:36:18.599Z,8.88
2016-12-01T02:37:27.170Z,8.85
2016-12-01T02:38:35.788Z,8.88
2016-12-01T02:39:44.358Z,8.98
2016-12-01T02:40:53.248Z,9.03
2016-12-01T02:42:01.814Z,8.99
2016-12-01T02:43:10.702Z,9.03
2016-12-01T02:44:19.619Z,9.04
2016-12-01T02:45:28.187Z,9.09
2016-12-01T02:46:36.756Z,9.12
2016-12-01T02:47:45.642Z,9.03
2016-12-01T02:48:54.207Z,9.03
2016-12-01T02:50:03.125Z,9.16
2016-12-01T02:51:11.727Z,8.99
2016-12-01T02:52:20.650Z,9.08
2016-12-01T02:53:29.898Z,9.09
2016-12-01T02:54:38.474Z,9.04
2016-12-01T02:55:47.387Z,9.03
2016-12-01T02:56:56.288Z,9.12
2016-12-01T02:58:05.203Z,9.04
2016-12-01T02:59:14.108Z,9.01
2016-12-01T03:00:22.698Z,9.03
2016-12-01T03:01:31.663Z,9.09
2016-12-01T03:02:40.245Z,9.06
2016-12-01T03:03:49.451Z,9.12
2016-12-01T03:04:58.343Z,9.18
2016-12-01T03:06:06.927Z,8.99
2016-12-01T03:07:16.527Z,9.04
2016-12-01T03:08:25.110Z,9.34
2016-12-01T03:09:34.008Z,9.24
2016-12-01T03:10:42.594Z,9.22
2016-12-01T03:11:51.506Z,9.16
2016-12-01T03:13:00.493Z,9.33
2016-12-01T03:14:09.068Z,9.3
2016-12-01T03:15:17.647Z,9.34
2016-12-01T03:16:26.220Z,9.29
2016-12-01T03:17:35.126Z,9.18
2016-12-01T03:18:44.084Z,9.34
2016-12-01T03:19:52.677Z,9.16
2016-12-01T03:21:01.574Z,9.29
2016-12-01T03:22:10.150Z,9.3
2016-12-01T03:23:19.413Z,9.33
2016-12-01T03:24:28.346Z,9.24
2016-12-01T03:25:36.942Z,9.26
2016-12-01T03:26:45.538Z,9.22
2016-12-01T03:27:54.120Z,9.19
2016-12-01T03:29:03.022Z,9.32
2016-12-01T03:30:12.038Z,9.32
2016-12-01T03:31:20.939Z,9.32
2016-12-01T03:32:29.524Z,9.22
2016-12-01T03:33:38.445Z,9.33
2016-12-01T03:34:47.347Z,9.14
2016-12-01T03:35:56.604Z,9.33
2016-12-01T03:37:05.519Z,9.16
2016-12-01T03:38:14.413Z,9.26
2016-12-01T03:39:23.322Z,9.19
2016-12-01T03:40:31.913Z,9.27
2016-12-01T03:41:41.425Z,9.4
2016-12-01T03:42:50.005Z,9.44
2016-12-01T03:43:58.919Z,9.26
2016-12-01T03:45:07.547Z,9.11
2016-12-01T03:46:16.770Z,9.03
2016-12-01T03:47:25.701Z,9.04
2016-12-01T03:48:34.303Z,9.04
2016-12-01T03:49:42.882Z,9.29
2016-12-01T03:50:51.790Z,9.18
2016-12-01T03:52:00.681Z,9.16
2016-12-01T03:53:10.049Z,9.22
2016-12-01T03:54:18.946Z,9.19
2016-12-01T03:55:27.530Z,9.32
2016-12-01T03:56:36.435Z,9.09
2016-12-01T03:57:45.349Z,9.22
2016-12-01T03:58:54.230Z,9.19
2016-12-01T04:00:03.458Z,9.24
2016-12-01T04:01:12.373Z,9.19
2016-12-01T04:02:21.266Z,9.22
2016-12-01T04:03:29.851Z,9.24
2016-12-01T04:04:39.064Z,9.22
2016-12-01T04:05:47.960Z,9.23
2016-12-01T04:06:56.565Z,9.33
2016-12-01T04:08:05.784Z,9.34
2016-12-01T04:09:14.373Z,9.32
2016-12-01T04:10:22.997Z,9.29
2016-12-01T04:11:31.891Z,9.34
2016-12-01T04:12:40.786Z,9.19
2016-12-01T04:13:49.694Z,9.32
2016-12-01T04:14:58.915Z,9.19
2016-12-01T04:16:07.607Z,9.16
2016-12-01T04:17:16.507Z,9.3
2016-12-01T04:18:25.410Z,9.18
2016-12-01T04:19:34.312Z,9.23
2016-12-01T04:20:43.214Z,9.36
2016-12-01T04:21:51.857Z,9.3
2016-12-01T04:23:00.779Z,9.15
2016-12-01T04:24:09.682Z,8.96
2016-12-01T04:25:18.588Z,9.16
2016-12-01T04:26:27.153Z,9.18
2016-12-01T04:27:36.128Z,9.19
2016-12-01T04:28:44.727Z,9.29
2016-12-01T04:29:53.314Z,9.22
2016-12-01T04:31:01.890Z,9.24
2016-12-01T04:32:10.471Z,9.09
2016-12-01T04:33:19.404Z,9.18
2016-12-01T04:34:28.014Z,9.19
2016-12-01T04:35:36.606Z,9.14
2016-12-01T04:36:45.865Z,9.29
2016-12-01T04:37:54.779Z,9.19
2016-12-01T04:39:03.704Z,9.22
2016-12-01T04:40:12.601Z,9.26
2016-12-01T04:41:21.512Z,9.16
2016-12-01T04:42:30.421Z,9.22
2016-12-01T04:43:39.004Z,9.23
2016-12-01T04:44:47.694Z,9.26
2016-12-01T04:45:56.265Z,9.23
2016-12-01T04:47:04.834Z,9.19
2016-12-01T04:48:13.418Z,9.42
2016-12-01T04:49:22.642Z,9.19
2016-12-01T04:50:31.587Z,9.18
2016-12-01T04:51:40.171Z,9.18
2016-12-01T04:52:48.753Z,9.09
2016-12-01T04:53:57.348Z,9.03
2016-12-01T04:55:05.941Z,9.11
2016-12-01T04:56:15.212Z,9.11
2016-12-01T04:57:24.122Z,9.01
2016-12-01T04:58:32.704Z,9.18
2016-12-01T04:59:41.911Z,9.16
2016-12-01T05:00:50.492Z,9.24
2016-12-01T05:02:00.190Z,9.32
2016-12-01T05:03:09.084Z,9.11
2016-12-01T05:04:17.665Z,9.09
2016-12-01T05:05:26.250Z,9.08
2016-12-01T05:06:34.850Z,9.16
2016-12-01T05:07:43.799Z,9.19
2016-12-01T05:08:52.372Z,9.23
2016-12-01T05:10:00.956Z,9.16
2016-12-01T05:11:09.533Z,9.04
2016-12-01T05:12:18.444Z,9.24
2016-12-01T05:13:27.076Z,9.16
2016-12-01T05:14:35.996Z,9.26
2016-12-01T05:15:45.223Z,9.22
2016-12-01T05:16:55.071Z,9.12
2016-12-01T05:18:04.619Z,9.19
2016-12-01T05:19:13.251Z,9.03
2016-12-01T05:20:22.146Z,9.23
2016-12-01T05:21:30.729Z,9.24
2016-12-01T05:22:39.319Z,9.27
2016-12-01T05:23:47.938Z,9.19
2016-12-01T05:24:57.466Z,9.23
2016-12-01T05:26:06.057Z,9.23
2016-12-01T05:27:14.643Z,9.34
2016-12-01T05:28:23.558Z,9.3
2016-12-01T05:29:32.125Z,9.14
2016-12-01T05:30:41.149Z,9.19
2016-12-01T05:31:49.749Z,9.22
2016-12-01T05:32:58.330Z,9.23
2016-12-01T05:34:06.926Z,9.18
2016-12-01T05:35:15.806Z,9.32
2016-12-01T05:36:24.697Z,9.42
2016-12-01T05:37:33.581Z,9.33
2016-12-01T05:38:42.156Z,9.32
2016-12-01T05:39:50.730Z,9.19
2016-12-01T05:40:59.327Z,9.42
2016-12-01T05:42:07.942Z,9.29
2016-12-01T05:43:16.527Z,9.42
2016-12-01T05:44:25.426Z,9.34
2016-12-01T05:45:34.332Z,9.32
2016-12-01T05:46:43.540Z,9.32
2016-12-01T05:47:52.497Z,9.54
2016-12-01T05:49:01.074Z,9.62
2016-12-01T05:50:09.661Z,9.62
2016-12-01T05:51:18.547Z,9.63
2016-12-01T05:52:27.442Z,9.44
2016-12-01T05:53:36.392Z,9.32
2016-12-01T05:54:45.302Z,9.32
2016-12-01T05:55:54.188Z,9.15
2016-12-01T05:57:03.091Z,9.34
2016-12-01T05:58:11.658Z,9.48
2016-12-01T05:59:20.928Z,9.29
2016-12-01T06:00:29.504Z,9.29
2016-12-01T06:01:38.723Z,9.44
2016-12-01T06:02:47.614Z,9.3
2016-12-01T06:03:56.534Z,9.23
2016-12-01T06:05:05.161Z,9.29
2016-12-01T06:06:14.390Z,9.42
2016-12-01T06:07:23.301Z,9.27
2016-12-01T06:08:32.535Z,9.37
2016-12-01T06:09:41.122Z,9.36
2016-12-01T06:10:49.757Z,9.22
2016-12-01T06:11:58.402Z,9.18
2016-12-01T06:13:07.318Z,9.44
2016-12-01T06:14:16.225Z,9.32
2016-12-01T06:15:25.132Z,9.3
2016-12-01T06:16:33.808Z,9.41
2016-12-01T06:17:42.398Z,9.29
2016-12-01T06:18:51.301Z,9.22
2016-12-01T06:19:59.890Z,9.36
2016-12-01T06:21:08.799Z,9.47
2016-12-01T06:22:17.745Z,9.42
2016-12-01T06:23:26.644Z,9.36
2016-12-01T06:24:35.551Z,9.36
2016-12-01T06:25:44.155Z,9.29
2016-12-01T06:26:53.052Z,9.4
2016-12-01T06:28:01.729Z,9.42
2016-12-01T06:29:10.344Z,9.44
2016-12-01T06:30:18.914Z,9.48
2016-12-01T06:31:27.825Z,9.59
2016-12-01T06:32:37.053Z,9.5
2016-12-01T06:33:45.945Z,9.32
2016-12-01T06:34:54.848Z,9.37
2016-12-01T06:36:04.072Z,9.37
2016-12-01T06:37:12.987Z,9.5
2016-12-01T06:38:21.890Z,9.45
2016-12-01T06:39:31.163Z,9.44
2016-12-01T06:40:39.752Z,9.32
2016-12-01T06:41:48.335Z,9.5
2016-12-01T06:42:57.268Z,9.44
2016-12-01T06:44:06.190Z,9.42
2016-12-01T06:45:15.858Z,9.33
2016-12-01T06:46:24.781Z,9.44
2016-12-01T06:47:33.683Z,9.55
2016-12-01T06:48:42.896Z,9.47
2016-12-01T06:49:51.475Z,9.42
2016-12-01T06:51:01.073Z,9.47
2016-12-01T06:52:09.980Z,9.45
2016-12-01T06:53:18.902Z,9.63
2016-12-01T06:54:27.488Z,9.52
2016-12-01T06:55:36.381Z,9.67
2016-12-01T06:56:45.646Z,9.57
2016-12-01T06:57:54.554Z,9.55
2016-12-01T06:59:03.471Z,9.54
2016-12-01T07:00:12.700Z,9.55
2016-12-01T07:01:21.614Z,9.55
2016-12-01T07:02:30.823Z,9.52
2016-12-01T07:03:40.058Z,9.6
2016-12-01T07:04:49.283Z,9.42
2016-12-01T07:05:58.196Z,9.44
2016-12-01T07:07:07.102Z,9.37
2016-12-01T07:08:15.743Z,9.37
2016-12-01T07:09:24.659Z,9.41
2016-12-01T07:10:33.249Z,9.41
2016-12-01T07:11:41.831Z,9.42
2016-12-01T07:12:51.069Z,9.48
2016-12-01T07:14:00.578Z,9.59
2016-12-01T07:15:09.169Z,9.4
2016-12-01T07:16:17.778Z,9.4
2016-12-01T07:17:27.024Z,9.59
2016-12-01T07:18:35.617Z,9.57
2016-12-01T07:19:44.295Z,9.77
2016-12-01T07:20:52.880Z,9.57
2016-12-01T07:22:02.108Z,9.51
2016-12-01T07:23:11.015Z,9.6
2016-12-01T07:24:20.254Z,9.67
2016-12-01T07:25:29.192Z,9.81
2016-12-01T07:26:38.092Z,9.87
2016-12-01T07:27:47.006Z,9.69
2016-12-01T07:28:55.914Z,9.84
2016-12-01T07:30:05.137Z,9.75
2016-12-01T07:31:14.081Z,9.98
2016-12-01T07:32:23.001Z,9.83
2016-12-01T07:33:31.909Z,9.87
2016-12-01T07:34:40.496Z,9.55
2016-12-01T07:35:49.395Z,9.59
2016-12-01T07:36:58.598Z,9.6
2016-12-01T07:38:08.136Z,9.66
2016-12-01T07:39:17.366Z,9.6
2016-12-01T07:40:26.262Z,9.72
2016-12-01T07:41:35.169Z,9.66
2016-12-01T07:42:44.116Z,9.57
2016-12-01T07:43:52.706Z,9.57
2016-12-01T07:45:01.592Z,9.63
2016-12-01T07:46:10.807Z,9.69
2016-12-01T07:47:19.705Z,9.66
2016-12-01T07:48:28.321Z,9.7
2016-12-01T07:49:37.552Z,9.7
2016-12-01T07:50:46.478Z,9.6
2016-12-01T07:51:55.066Z,9.63
2016-12-01T07:53:03.665Z,9.75
2016-12-01T07:54:12.603Z,9.73
2016-12-01T07:55:21.512Z,9.83
2016-12-01T07:56:30.424Z,9.81
2016-12-01T07:57:39.338Z,9.83
2016-12-01T07:58:47.929Z,9.78
2016-12-01T07:59:57.213Z,9.83
2016-12-01T08:01:05.795Z,9.93
2016-12-01T08:02:14.698Z,9.99
2016-12-01T08:03:23.318Z,9.84
2016-12-01T08:04:32.231Z,9.85
2016-12-01T08:05:41.488Z,9.88
2016-12-01T08:06:50.741Z,9.91
2016-12-01T08:07:59.309Z,9.81
2016-12-01T08:09:08.531Z,9.73
2016-12-01T08:10:17.449Z,9.94
2016-12-01T08:11:26.723Z,10.17
2016-12-01T08:12:36.285Z,10.12
2016-12-01T08:13:44.861Z,9.98
2016-12-01T08:14:53.766Z,9.96
2016-12-01T08:16:02.992Z,9.94
2016-12-01T08:17:12.283Z,10.06
2016-12-01T08:18:21.200Z,9.8
2016-12-01T08:19:30.437Z,9.87
2016-12-01T08:20:39.353Z,9.9
2016-12-01T08:21:47.947Z,9.96
2016-12-01T08:22:56.576Z,9.85
2016-12-01T08:24:05.152Z,9.9
2016-12-01T08:25:14.058Z,9.81
2016-12-01T08:26:22.666Z,9.91
2016-12-01T08:27:31.257Z,9.9
2016-12-01T08:28:40.563Z,9.99
2016-12-01T08:29:49.477Z,9.83
2016-12-01T08:30:58.372Z,9.98
2016-12-01T08:32:07.278Z,10.14
2016-12-01T08:33:16.185Z,10.02
2016-12-01T08:34:25.190Z,9.94
2016-12-01T08:35:33.765Z,10.09
2016-12-01T08:36:42.350Z,10.03
2016-12-01T08:37:50.951Z,9.96
2016-12-01T08:38:59.534Z,9.81
2016-12-01T08:40:08.528Z,9.98
2016-12-01T08:41:17.428Z,9.99
2016-12-01T08:42:26.012Z,9.99
2016-12-01T08:43:35.239Z,10.1
2016-12-01T08:44:44.137Z,10.03
2016-12-01T08:45:53.420Z,10.12
2016-12-01T08:47:02.328Z,9.94
2016-12-01T08:48:11.253Z,9.85
2016-12-01T08:49:19.847Z,9.91
2016-12-01T08:50:28.771Z,9.98
2016-12-01T08:51:38.042Z,9.8
2016-12-01T08:52:46.983Z,10.1
2016-12-01T08:53:56.259Z,9.96
2016-12-01T08:55:05.201Z,10.21
2016-12-01T08:56:14.111Z,10.06
2016-12-01T08:57:23.368Z,10.09
2016-12-01T08:58:31.967Z,10.1
2016-12-01T08:59:40.555Z,10.02
2016-12-01T09:00:49.794Z,10.02
2016-12-01T09:01:59.031Z,10.18
2016-12-01T09:03:08.420Z,9.99
2016-12-01T09:04:17.037Z,10.01
2016-12-01T09:05:25.641Z,9.88
2016-12-01T09:06:34.573Z,9.85
2016-12-01T09:07:43.488Z,9.87
2016-12-01T09:08:52.447Z,9.96
2016-12-01T09:10:01.041Z,9.98
2016-12-01T09:11:09.950Z,9.94
2016-12-01T09:12:18.529Z,9.99
2016-12-01T09:13:27.423Z,9.9
2016-12-01T09:14:36.688Z,9.99
2016-12-01T09:15:45.584Z,10.2
2016-12-01T09:16:54.482Z,10.18
2016-12-01T09:18:03.074Z,10.12
2016-12-01T09:19:11.973Z,10.18
2016-12-01T09:20:20.922Z,10.17
2016-12-01T09:21:29.511Z,10.2
2016-12-01T09:22:38.419Z,10.24
2016-12-01T09:23:47.015Z,10.54
2016-12-01T09:24:55.941Z,10.28
2016-12-01T09:26:04.573Z,10.35
2016-12-01T09:27:13.154Z,10.35
2016-12-01T09:28:21.767Z,10.41
2016-12-01T09:29:30.665Z,10.21
2016-12-01T09:30:39.563Z,10.23
2016-12-01T09:31:48.209Z,10.3
2016-12-01T09:32:56.791Z,10.48
2016-12-01T09:34:05.688Z,10.39
2016-12-01T09:35:14.284Z,10.26
2016-12-01T09:36:23.237Z,10.35
2016-12-01T09:37:32.164Z,10.52
2016-12-01T09:38:40.742Z,10.42
2016-12-01T09:39:49.336Z,10.38
2016-12-01T09:40:57.929Z,10.49
2016-12-01T09:42:06.545Z,10.36
2016-12-01T09:43:15.175Z,10.38
2016-12-01T09:44:24.101Z,10.28
2016-12-01T09:45:32.992Z,10.31
2016-12-01T09:46:41.907Z,10.41
2016-12-01T09:47:50.820Z,10.24
2016-12-01T09:48:59.783Z,10.41
2016-12-01T09:50:08.367Z,10.28
2016-12-01T09:51:17.598Z,10.3
2016-12-01T09:52:26.498Z,10.21
2016-12-01T09:53:35.087Z,10.08
2016-12-01T09:54:45.052Z,10.08
2016-12-01T09:55:53.633Z,10.14
2016-12-01T09:57:03.185Z,10.21
2016-12-01T09:58:12.097Z,10.1
2016-12-01T09:59:20.674Z,10.18
2016-12-01T10:00:29.316Z,10.43
2016-12-01T10:01:38.551Z,10.16
2016-12-01T10:02:47.780Z,10.17
2016-12-01T10:03:56.676Z,10.3
2016-12-01T10:05:05.270Z,10.21
2016-12-01T10:06:14.513Z,10.41
2016-12-01T10:07:23.728Z,10.17
2016-12-01T10:08:32.960Z,10.24
2016-12-01T10:09:42.172Z,10.36
2016-12-01T10:10:50.755Z,10.34
2016-12-01T10:11:59.725Z,10.28
2016-12-01T10:13:08.626Z,10.42
2016-12-01T10:14:17.204Z,10.46
2016-12-01T10:15:26.453Z,10.49
2016-12-01T10:16:35.085Z,10.38
2016-12-01T10:17:44.112Z,10.31
2016-12-01T10:18:53.685Z,10.65
2016-12-01T10:20:02.940Z,10.72
2016-12-01T10:21:11.843Z,10.68
2016-12-01T10:22:21.068Z,10.65
2016-12-01T10:23:29.695Z,10.55
2016-12-01T10:24:38.932Z,10.65
2016-12-01T10:25:47.820Z,10.65
2016-12-01T10:26:56.409Z,10.62
2016-12-01T10:28:05.005Z,10.62
2016-12-01T10:29:14.253Z,10.68
2016-12-01T10:30:23.165Z,10.79
2016-12-01T10:31:31.743Z,10.64
2016-12-01T10:32:40.650Z,10.73
2016-12-01T10:33:49.238Z,10.87
2016-12-01T10:34:57.930Z,10.85
2016-12-01T10:36:06.829Z,10.76
2016-12-01T10:37:15.727Z,10.68
2016-12-01T10:38:24.309Z,10.68
2016-12-01T10:39:33.207Z,10.68
2016-12-01T10:40:42.225Z,10.85
2016-12-01T10:41:50.827Z,10.86
2016-12-01T10:42:59.722Z,10.9
2016-12-01T10:44:08.299Z,10.87
2016-12-01T10:45:16.889Z,10.9
2016-12-01T10:46:26.167Z,11.08
2016-12-01T10:47:34.746Z,11.08
2016-12-01T10:48:43.325Z,10.86
2016-12-01T10:49:52.230Z,10.64
2016-12-01T10:51:00.821Z,10.65
2016-12-01T10:52:09.786Z,10.75
2016-12-01T10:53:18.709Z,10.8
2016-12-01T10:54:27.299Z,10.83
2016-12-01T10:55:36.204Z,10.76
2016-12-01T10:56:44.804Z,10.76
2016-12-01T10:57:53.490Z,10.8
2016-12-01T10:59:02.068Z,10.55
2016-12-01T11:00:10.979Z,10.68
2016-12-01T11:01:19.875Z,10.75
2016-12-01T11:02:28.467Z,10.82
2016-12-01T11:03:37.780Z,10.62
2016-12-01T11:04:46.370Z,10.55
2016-12-01T11:05:54.962Z,10.79
2016-12-01T11:07:03.550Z,10.79
2016-12-01T11:08:12.142Z,10.61
2016-12-01T11:09:21.039Z,10.49
2016-12-01T11:10:29.981Z,10.49
2016-12-01T11:11:39.204Z,10.73
2016-12-01T11:12:48.128Z,10.65
2016-12-01T11:13:56.748Z,10.73
2016-12-01T11:15:06.342Z,10.72
2016-12-01T11:16:14.931Z,10.64
2016-12-01T11:17:24.169Z,10.68
2016-12-01T11:18:33.387Z,10.7
2016-12-01T11:19:42.616Z,10.79
2016-12-01T11:20:51.607Z,10.57
2016-12-01T11:22:00.189Z,10.83
2016-12-01T11:23:08.784Z,10.79
2016-12-01T11:24:17.697Z,10.7
2016-12-01T11:25:26.291Z,10.73
2016-12-01T11:26:35.264Z,10.85
2016-12-01T11:27:43.859Z,11.03
2016-12-01T11:28:53.078Z,10.57
2016-12-01T11:30:01.660Z,10.7
2016-12-01T11:31:10.559Z,10.68
2016-12-01T11:32:19.781Z,10.58
2016-12-01T11:33:28.392Z,10.87
2016-12-01T11:34:36.959Z,10.76
2016-12-01T11:35:45.868Z,10.75
2016-12-01T11:36:54.776Z,10.67
2016-12-01T11:38:03.727Z,10.67
2016-12-01T11:39:12.302Z,10.65
2016-12-01T11:40:21.508Z,10.76
2016-12-01T11:41:30.422Z,10.86
2016-12-01T11:42:39.333Z,10.8
2016-12-01T11:43:48.286Z,10.8
2016-12-01T11:44:57.205Z,10.83
2016-12-01T11:46:06.137Z,10.6
2016-12-01T11:47:15.035Z,10.72
2016-12-01T11:48:23.630Z,10.75
2016-12-01T11:49:32.899Z,10.79
2016-12-01T11:50:41.822Z,10.86
2016-12-01T11:51:50.746Z,10.8
2016-12-01T11:52:59.664Z,10.62
2016-12-01T11:54:08.887Z,10.72
2016-12-01T11:55:17.932Z,10.7
2016-12-01T11:56:27.168Z,10.57
2016-12-01T11:57:36.075Z,10.52
2016-12-01T11:58:44.682Z,10.36
2016-12-01T11:59:53.590Z,10.3
2016-12-01T12:01:02.590Z,10.45
2016-12-01T12:02:11.167Z,10.26
2016-12-01T12:03:19.743Z,10.21
2016-12-01T12:04:28.654Z,10.12
2016-12-01T12:05:37.221Z,10.18
2016-12-01T12:06:46.118Z,10.18
2016-12-01T12:07:54.699Z,10.12
2016-12-01T12:09:03.619Z,10.12
2016-12-01T12:10:12.868Z,9.98
2016-12-01T12:11:21.452Z,10.16
2016-12-01T12:12:31.182Z,10.05
2016-12-01T12:13:39.770Z,10.2
2016-12-01T12:14:48.371Z,10.16
2016-12-01T12:15:56.970Z,10.17
2016-12-01T12:17:05.549Z,10.14
2016-12-01T12:18:14.751Z,9.99
2016-12-01T12:19:23.975Z,9.94
2016-12-01T12:20:32.561Z,10.03
2016-12-01T12:21:41.485Z,10.1
2016-12-01T12:22:50.405Z,9.98
2016-12-01T12:23:59.293Z,9.98
2016-12-01T12:25:08.520Z,10.06
2016-12-01T12:26:17.455Z,10.2
2016-12-01T12:27:26.028Z,10.27
2016-12-01T12:28:35.249Z,10.23
2016-12-01T12:29:44.168Z,10.23
2016-12-01T12:30:53.078Z,10.39
2016-12-01T12:32:01.658Z,10.41
2016-12-01T12:33:10.256Z,10.34
2016-12-01T12:34:18.852Z,10.36
2016-12-01T12:35:27.585Z,10.42
2016-12-01T12:36:36.805Z,10.39
2016-12-01T12:37:45.718Z,10.36
2016-12-01T12:38:54.632Z,10.34
2016-12-01T12:40:03.551Z,10.6
2016-12-01T12:41:12.534Z,10.54
2016-12-01T12:42:21.447Z,10.46
2016-12-01T12:43:30.357Z,10.54
2016-12-01T12:44:39.278Z,10.57
2016-12-01T12:45:48.823Z,10.46
2016-12-01T12:46:57.481Z,10.64
2016-12-01T12:48:06.071Z,10.67
2016-12-01T12:49:14.646Z,10.68
2016-12-01T12:50:24.197Z,10.68
2016-12-01T12:51:33.120Z,10.75
2016-12-01T12:52:41.797Z,10.57
2016-12-01T12:53:50.709Z,10.62
2016-12-01T12:54:59.288Z,10.52
2016-12-01T12:56:08.239Z,10.46
2016-12-01T12:57:17.444Z,10.34
2016-12-01T12:58:26.403Z,10.52
2016-12-01T12:59:35.335Z,10.39
2016-12-01T13:00:43.928Z,10.46
2016-12-01T13:01:52.541Z,10.52
2016-12-01T13:03:01.494Z,10.68
2016-12-01T13:04:10.496Z,10.64
2016-12-01T13:05:19.091Z,10.28
2016-12-01T13:06:27.996Z,10.24
2016-12-01T13:07:36.912Z,10.36
2016-12-01T13:08:45.490Z,10.41
2016-12-01T13:09:54.438Z,10.58
2016-12-01T13:11:03.024Z,10.48
2016-12-01T13:12:12.273Z,10.36
2016-12-01T13:13:21.174Z,10.38
2016-12-01T13:14:29.762Z,10.18
2016-12-01T13:15:38.456Z,10.39
2016-12-01T13:16:47.368Z,10.31
2016-12-01T13:17:55.951Z,10.17
2016-12-01T13:19:04.844Z,10.06
2016-12-01T13:20:13.432Z,10.14
2016-12-01T13:21:22.067Z,10.01
2016-12-01T13:22:30.986Z,10.02
2016-12-01T13:23:39.918Z,9.98
2016-12-01T13:24:48.833Z,10.17
2016-12-01T13:25:57.762Z,10.03
2016-12-01T13:27:07.455Z,9.96
2016-12-01T13:28:16.066Z,10.08
2016-12-01T13:29:24.964Z,10.09
2016-12-01T13:30:33.561Z,10.1
2016-12-01T13:31:42.480Z,10.16
2016-12-01T13:32:52.084Z,10.12
2016-12-01T13:34:00.991Z,10.23
2016-12-01T13:35:09.560Z,10.12
2016-12-01T13:36:18.166Z,10.12
2016-12-01T13:37:26.769Z,10.18
2016-12-01T13:38:35.803Z,10.27
2016-12-01T13:39:44.719Z,10.3
2016-12-01T13:40:53.321Z,10.36
2016-12-01T13:42:01.908Z,10.42
2016-12-01T13:43:10.810Z,10.34
2016-12-01T13:44:19.786Z,10.31
2016-12-01T13:45:29.014Z,10.31
2016-12-01T13:46:37.910Z,10.36
2016-12-01T13:47:46.807Z,10.3
2016-12-01T13:48:55.404Z,10.41
2016-12-01T13:50:04.083Z,10.21
2016-12-01T13:51:12.998Z,10.27
2016-12-01T13:52:21.902Z,10.35
2016-12-01T13:53:31.142Z,10.38
2016-12-01T13:54:39.732Z,10.36
2016-12-01T13:55:48.997Z,10.58
2016-12-01T13:56:58.208Z,10.46
2016-12-01T13:58:07.104Z,10.57
2016-12-01T13:59:15.688Z,10.46
2016-12-01T14:00:24.268Z,10.49
2016-12-01T14:01:33.863Z,10.65
2016-12-01T14:02:43.092Z,10.48
2016-12-01T14:03:52.016Z,10.62
2016-12-01T14:05:00.944Z,10.54
2016-12-01T14:06:09.566Z,10.48
2016-12-01T14:07:18.582Z,10.43
2016-12-01T14:08:27.819Z,10.41
2016-12-01T14:09:36.713Z,10.34
2016-12-01T14:10:45.619Z,10.2
2016-12-01T14:11:54.519Z,10.28
2016-12-01T14:13:03.195Z,10.21
2016-12-01T14:14:11.785Z,10.21
2016-12-01T14:15:20.684Z,10.06
2016-12-01T14:16:29.287Z,10.08
2016-12-01T14:17:38.508Z,10.17
2016-12-01T14:18:47.780Z,10.12
2016-12-01T14:19:56.690Z,10.09
2016-12-01T14:21:05.604Z,10.09
2016-12-01T14:22:14.196Z,10.01
2016-12-01T14:23:23.117Z,9.91
2016-12-01T14:24:31.799Z,9.99
2016-12-01T14:25:40.692Z,9.84
2016-12-01T14:26:49.591Z,9.85
2016-12-01T14:27:58.505Z,9.81
2016-12-01T14:29:07.092Z,9.8
2016-12-01T14:30:16.137Z,9.81
2016-12-01T14:31:25.054Z,9.83
2016-12-01T14:32:33.948Z,9.73
2016-12-01T14:33:42.861Z,9.83
2016-12-01T14:34:51.444Z,9.77
2016-12-01T14:36:00.426Z,9.85
2016-12-01T14:37:09.647Z,9.73
2016-12-01T14:38:18.239Z,9.67
2016-12-01T14:39:27.146Z,9.67
2016-12-01T14:40:35.751Z,9.57
2016-12-01T14:41:44.394Z,9.63
2016-12-01T14:42:53.643Z,9.44
2016-12-01T14:44:02.555Z,9.44
2016-12-01T14:45:12.110Z,9.44
2016-12-01T14:46:21.982Z,9.33
2016-12-01T14:47:30.927Z,9.33
2016-12-01T14:48:39.507Z,9.19
2016-12-01T14:49:48.406Z,9.22
2016-12-01T14:50:56.987Z,9.18
2016-12-01T14:52:06.545Z,9.27
2016-12-01T14:53:15.482Z,9.27
2016-12-01T14:54:24.383Z,9.32
2016-12-01T14:55:32.953Z,9.16
2016-12-01T14:56:42.168Z,9.44
2016-12-01T14:57:51.390Z,9.41
2016-12-01T14:59:00.015Z,9.4
2016-12-01T15:00:08.900Z,9.45
2016-12-01T15:01:17.478Z,9.3
2016-12-01T15:02:26.393Z,9.32
2016-12-01T15:03:35.312Z,9.4
2016-12-01T15:04:44.000Z,9.5
2016-12-01T15:05:52.583Z,9.44
2016-12-01T15:07:01.523Z,9.44
2016-12-01T15:08:10.429Z,9.45